This is the latest recevied weather packets stored in our database for station/object MARKET. If no packets are shown the sender has not sent any weather packets the latest 10 day(s).
| Time | Temp. | Humidity | Pressure | Rain* | Wind** | Luminosity | Snow |
|---|---|---|---|---|---|---|---|
| 1777125995 | 2.78° C | 72% | 1000.1 hPa | - | - | - | - |
| 1777124795 | 2.78° C | 74% | 999.8 hPa | - | - | - | - |
| 1777123595 | 2.78° C | 80% | 999.8 hPa | - | - | - | - |
| 1777122395 | 2.78° C | 78% | 999.3 hPa | - | - | - | - |
| 1777121195 | 2.22° C | 83% | 999 hPa | - | - | - | - |
| 1777119995 | 2.78° C | 75% | 998.8 hPa | - | - | - | - |
| 1777118795 | 2.78° C | 75% | 998.4 hPa | - | - | - | - |
| 1777116394 | 2.78° C | 82% | 997.7 hPa | - | - | - | - |
| 1777115194 | 2.78° C | 86% | 997.4 hPa | - | - | - | - |
| 1777113994 | 2.78° C | 90% | 996.9 hPa | - | - | - | - |
| 1777112794 | 3.33° C | 86% | 996.3 hPa | - | - | - | - |
| 1777111595 | 4.44° C | 73% | 995.7 hPa | - | - | - | - |
| 1777110394 | 4.44° C | 76% | 995.8 hPa | - | - | - | - |
| 1777109195 | 4.44° C | 69% | 996 hPa | - | - | - | - |
| 1777107995 | 4.44° C | 74% | 995.8 hPa | - | - | - | - |
| 1777106794 | 5° C | 73% | 995.4 hPa | - | - | - | - |
| 1777105594 | 5.56° C | 75% | 995.3 hPa | - | - | - | - |
| 1777104395 | 5.56° C | 75% | 995.3 hPa | - | - | - | - |
| 1777103194 | 5.56° C | 72% | 995.3 hPa | - | - | - | - |
| 1777101994 | 6.11° C | 66% | 995.2 hPa | - | - | - | - |
| 1777100793 | 6.11° C | 69% | 995.3 hPa | - | - | - | - |
| 1777099594 | 5.56° C | 75% | 995.3 hPa | - | - | - | - |
| 1777098393 | 5.56° C | 73% | 995.4 hPa | - | - | - | - |
| 1777097193 | 6.11° C | 67% | 995.6 hPa | - | - | - | - |
| 1777095993 | 6.11° C | 72% | 995.7 hPa | - | - | - | - |
* Rain since midnight (hover to see other rain measurements)
** Current wind speed in m/s (hover to see current wind gust speed)